sensor_id;sensor_type;location;lat;lon;timestamp;pressure;altitude;pressure_sealevel;temperature;humidity
76866;BME280;66647;52.124;5.416;2024-02-21T00:01:03;102282.38;;;8.61;100.00
76866;BME280;66647;52.124;5.416;2024-02-21T00:03:33;102291.38;;;8.61;100.00
76866;BME280;66647;52.124;5.416;2024-02-21T00:07:00;102279.91;;;8.59;100.00
76866;BME280;66647;52.124;5.416;2024-02-21T00:09:31;102271.16;;;8.57;100.00
76866;BME280;66647;52.124;5.416;2024-02-21T00:11:58;102262.41;;;8.55;100.00
76866;BME280;66647;52.124;5.416;2024-02-21T00:14:26;102251.47;;;8.55;100.00
76866;BME280;66647;52.124;5.416;2024-02-21T00:16:58;102261.88;;;8.53;100.00
76866;BME280;66647;52.124;5.416;2024-02-21T00:19:25;102254.50;;;8.54;100.00
76866;BME280;66647;52.124;5.416;2024-02-21T00:21:52;102235.91;;;8.51;100.00
76866;BME280;66647;52.124;5.416;2024-02-21T00:24:19;102243.00;;;8.52;100.00
76866;BME280;66647;52.124;5.416;2024-02-21T00:26:51;102247.66;;;8.51;100.00
76866;BME280;66647;52.124;5.416;2024-02-21T00:29:32;102253.69;;;8.53;100.00
76866;BME280;66647;52.124;5.416;2024-02-21T00:32:08;102254.78;;;8.52;100.00
76866;BME280;66647;52.124;5.416;2024-02-21T00:34:34;102251.22;;;8.52;100.00
76866;BME280;66647;52.124;5.416;2024-02-21T00:37:05;102243.84;;;8.52;100.00
76866;BME280;66647;52.124;5.416;2024-02-21T00:39:41;102253.69;;;8.53;100.00
76866;BME280;66647;52.124;5.416;2024-02-21T00:42:09;102243.56;;;8.54;100.00
76866;BME280;66647;52.124;5.416;2024-02-21T00:45:04;102237.28;;;8.53;100.00
76866;BME280;66647;52.124;5.416;2024-02-21T00:47:30;102231.25;;;8.51;100.00
76866;BME280;66647;52.124;5.416;2024-02-21T00:50:00;102232.09;;;8.52;100.00
76866;BME280;66647;52.124;5.416;2024-02-21T00:52:38;102241.09;;;8.52;100.00
76866;BME280;66647;52.124;5.416;2024-02-21T00:55:13;102244.09;;;8.51;100.00
76866;BME280;66647;52.124;5.416;2024-02-21T00:57:40;102240.00;;;8.48;100.00
76866;BME280;66647;52.124;5.416;2024-02-21T01:00:32;102251.50;;;8.50;100.00
76866;BME280;66647;52.124;5.416;2024-02-21T01:03:11;102260.50;;;8.51;100.00
76866;BME280;66647;52.124;5.416;2024-02-21T01:05:37;102267.63;;;8.52;100.00
76866;BME280;66647;52.124;5.416;2024-02-21T01:08:04;102272.25;;;8.51;100.00
76866;BME280;66647;52.124;5.416;2024-02-21T01:10:34;102264.88;;;8.52;100.00
76866;BME280;66647;52.124;5.416;2024-02-21T01:13:18;102273.09;;;8.52;100.00
76866;BME280;66647;52.124;5.416;2024-02-21T01:15:45;102253.13;;;8.51;100.00
76866;BME280;66647;52.124;5.416;2024-02-21T01:18:18;102257.50;;;8.52;100.00
76866;BME280;66647;52.124;5.416;2024-02-21T01:20:44;102245.75;;;8.52;100.00
76866;BME280;66647;52.124;5.416;2024-02-21T01:26:09;102250.41;;;8.51;100.00
76866;BME280;66647;52.124;5.416;2024-02-21T01:28:40;102244.94;;;8.51;100.00
76866;BME280;66647;52.124;5.416;2024-02-21T01:31:07;102242.19;;;8.51;100.00
76866;BME280;66647;52.124;5.416;2024-02-21T01:33:59;102232.91;;;8.52;100.00
76866;BME280;66647;52.124;5.416;2024-02-21T01:36:31;102223.06;;;8.51;100.00
76866;BME280;66647;52.124;5.416;2024-02-21T01:38:57;102220.31;;;8.51;100.00
76866;BME280;66647;52.124;5.416;2024-02-21T01:41:24;102224.69;;;8.52;100.00
76866;BME280;66647;52.124;5.416;2024-02-21T01:44:16;102223.06;;;8.51;100.00
76866;BME280;66647;52.124;5.416;2024-02-21T01:46:46;102217.59;;;8.51;100.00
76866;BME280;66647;52.124;5.416;2024-02-21T01:49:12;102201.19;;;8.51;100.00
76866;BME280;66647;52.124;5.416;2024-02-21T01:51:55;102201.19;;;8.51;100.00
76866;BME280;66647;52.124;5.416;2024-02-21T01:54:22;102190.53;;;8.50;100.00
76866;BME280;66647;52.124;5.416;2024-02-21T01:56:52;102192.16;;;8.51;100.00
76866;BME280;66647;52.124;5.416;2024-02-21T01:59:20;102193.00;;;8.51;100.00
76866;BME280;66647;52.124;5.416;2024-02-21T02:01:58;102195.72;;;8.51;100.00
76866;BME280;66647;52.124;5.416;2024-02-21T02:04:25;102186.69;;;8.51;100.00
76866;BME280;66647;52.124;5.416;2024-02-21T02:06:55;102193.81;;;8.52;100.00
76866;BME280;66647;52.124;5.416;2024-02-21T02:09:22;102184.78;;;8.51;100.00
76866;BME280;66647;52.124;5.416;2024-02-21T02:11:49;102189.44;;;8.51;100.00
76866;BME280;66647;52.124;5.416;2024-02-21T02:17:42;102173.84;;;8.51;100.00
76866;BME280;66647;52.124;5.416;2024-02-21T02:20:12;102166.75;;;8.50;100.00
76866;BME280;66647;52.124;5.416;2024-02-21T02:25:30;102157.72;;;8.50;100.00
76866;BME280;66647;52.124;5.416;2024-02-21T02:28:13;102159.38;;;8.51;100.00
76866;BME280;66647;52.124;5.416;2024-02-21T02:30:40;102147.63;;;8.50;100.00
76866;BME280;66647;52.124;5.416;2024-02-21T02:33:12;102155.81;;;8.50;100.00
76866;BME280;66647;52.124;5.416;2024-02-21T02:35:51;102155.81;;;8.50;100.00
76866;BME280;66647;52.124;5.416;2024-02-21T02:38:18;102152.53;;;8.48;100.00
76866;BME280;66647;52.124;5.416;2024-02-21T02:41:06;102151.72;;;8.48;100.00
76866;BME280;66647;52.124;5.416;2024-02-21T02:43:33;102150.91;;;8.47;100.00
76866;BME280;66647;52.124;5.416;2024-02-21T02:45:59;102154.47;;;8.48;100.00
76866;BME280;66647;52.124;5.416;2024-02-21T02:48:26;102158.00;;;8.48;100.00
76866;BME280;66647;52.124;5.416;2024-02-21T02:51:02;102147.06;;;8.48;100.00
76866;BME280;66647;52.124;5.416;2024-02-21T02:56:52;102146.25;;;8.48;100.00
76866;BME280;66647;52.124;5.416;2024-02-21T02:59:19;102137.22;;;8.47;100.00
76866;BME280;66647;52.124;5.416;2024-02-21T03:01:45;102139.16;;;8.47;100.00
76866;BME280;66647;52.124;5.416;2024-02-21T03:04:12;102132.03;;;8.46;100.00
76866;BME280;66647;52.124;5.416;2024-02-21T03:07:04;102120.28;;;8.45;100.00
76866;BME280;66647;52.124;5.416;2024-02-21T03:09:31;102117.56;;;8.45;100.00
76866;BME280;66647;52.124;5.416;2024-02-21T03:11:58;102124.16;;;8.44;100.00
76866;BME280;66647;52.124;5.416;2024-02-21T03:14:31;102118.69;;;8.44;100.00
76866;BME280;66647;52.124;5.416;2024-02-21T03:17:07;102110.75;;;8.43;100.00
76866;BME280;66647;52.124;5.416;2024-02-21T03:20:10;102112.69;;;8.42;100.00
76866;BME280;66647;52.124;5.416;2024-02-21T03:22:39;102110.75;;;8.43;100.00
76866;BME280;66647;52.124;5.416;2024-02-21T03:25:13;102093.53;;;8.42;100.00
76866;BME280;66647;52.124;5.416;2024-02-21T03:27:41;102098.19;;;8.41;100.00
76866;BME280;66647;52.124;5.416;2024-02-21T03:30:09;102095.75;;;8.40;100.00
76866;BME280;66647;52.124;5.416;2024-02-21T03:32:51;102097.38;;;8.41;100.00
76866;BME280;66647;52.124;5.416;2024-02-21T03:35:41;102085.63;;;8.40;100.00
76866;BME280;66647;52.124;5.416;2024-02-21T03:48:13;102065.13;;;8.38;100.00
76866;BME280;66647;52.124;5.416;2024-02-21T04:01:24;102063.78;;;8.35;100.00
76866;BME280;66647;52.124;5.416;2024-02-21T04:10:25;102064.06;;;8.34;100.00
76866;BME280;66647;52.124;5.416;2024-02-21T04:13:17;102068.72;;;8.33;100.00
76866;BME280;66647;52.124;5.416;2024-02-21T04:15:51;102068.72;;;8.33;100.00
76866;BME280;66647;52.124;5.416;2024-02-21T04:18:18;102051.50;;;8.33;100.00
76866;BME280;66647;52.124;5.416;2024-02-21T04:20:51;102049.81;;;8.32;100.00
76866;BME280;66647;52.124;5.416;2024-02-21T04:23:43;102045.47;;;8.31;100.00
76866;BME280;66647;52.124;5.416;2024-02-21T04:26:25;102043.53;;;8.31;100.00
76866;BME280;66647;52.124;5.416;2024-02-21T04:28:52;102047.38;;;8.30;100.00
76866;BME280;66647;52.124;5.416;2024-02-21T04:31:19;102049.28;;;8.30;100.00
76866;BME280;66647;52.124;5.416;2024-02-21T04:33:45;102041.09;;;8.30;100.00
76866;BME280;66647;52.124;5.416;2024-02-21T04:36:12;102036.44;;;8.30;100.00
76866;BME280;66647;52.124;5.416;2024-02-21T04:39:04;102036.44;;;8.30;100.00
76866;BME280;66647;52.124;5.416;2024-02-21T04:41:31;102032.06;;;8.29;100.00
76866;BME280;66647;52.124;5.416;2024-02-21T04:44:23;102030.44;;;8.28;100.00
76866;BME280;66647;52.124;5.416;2024-02-21T04:46:53;102030.72;;;8.27;100.00
76866;BME280;66647;52.124;5.416;2024-02-21T04:49:57;102010.50;;;8.28;100.00
76866;BME280;66647;52.124;5.416;2024-02-21T04:52:24;102015.16;;;8.27;100.00
76866;BME280;66647;52.124;5.416;2024-02-21T04:55:21;102009.97;;;8.26;100.00
76866;BME280;66647;52.124;5.416;2024-02-21T04:57:57;102017.59;;;8.29;100.00
76866;BME280;66647;52.124;5.416;2024-02-21T05:00:23;102012.13;;;8.29;100.00
76866;BME280;66647;52.124;5.416;2024-02-21T05:02:50;102010.50;;;8.28;100.00
76866;BME280;66647;52.124;5.416;2024-02-21T05:05:17;102014.31;;;8.27;100.00
76866;BME280;66647;52.124;5.416;2024-02-21T05:07:44;102011.31;;;8.28;100.00
76866;BME280;66647;52.124;5.416;2024-02-21T05:10:36;102003.94;;;8.29;100.00
76866;BME280;66647;52.124;5.416;2024-02-21T05:13:03;102009.41;;;8.29;100.00
76866;BME280;66647;52.124;5.416;2024-02-21T05:15:31;102017.59;;;8.29;100.00
76866;BME280;66647;52.124;5.416;2024-02-21T05:17:58;102004.75;;;8.29;100.00
76866;BME280;66647;52.124;5.416;2024-02-21T05:20:25;101996.84;;;8.28;100.00
76866;BME280;66647;52.124;5.416;2024-02-21T05:26:25;101988.91;;;8.26;100.00
76866;BME280;66647;52.124;5.416;2024-02-21T05:28:52;101988.09;;;8.26;100.00
76866;BME280;66647;52.124;5.416;2024-02-21T05:31:20;101978.25;;;8.25;100.00
76866;BME280;66647;52.124;5.416;2024-02-21T05:33:47;101972.81;;;8.25;100.00
76866;BME280;66647;52.124;5.416;2024-02-21T05:36:39;101967.34;;;8.25;100.00
76866;BME280;66647;52.124;5.416;2024-02-21T05:39:35;101950.94;;;8.25;100.00
76866;BME280;66647;52.124;5.416;2024-02-21T05:42:06;101955.88;;;8.23;100.00
76866;BME280;66647;52.124;5.416;2024-02-21T05:44:44;101953.13;;;8.23;100.00
76866;BME280;66647;52.124;5.416;2024-02-21T05:47:36;101949.59;;;8.22;100.00
76866;BME280;66647;52.124;5.416;2024-02-21T05:50:03;101940.56;;;8.22;100.00
76866;BME280;66647;52.124;5.416;2024-02-21T05:52:31;101935.09;;;8.22;100.00
76866;BME280;66647;52.124;5.416;2024-02-21T05:55:09;101929.66;;;8.22;100.00
76866;BME280;66647;52.124;5.416;2024-02-21T05:57:35;101929.66;;;8.22;100.00
76866;BME280;66647;52.124;5.416;2024-02-21T06:00:23;101929.66;;;8.22;100.00
76866;BME280;66647;52.124;5.416;2024-02-21T06:02:49;101924.19;;;8.22;100.00
76866;BME280;66647;52.124;5.416;2024-02-21T06:05:16;101925.00;;;8.22;100.00
76866;BME280;66647;52.124;5.416;2024-02-21T06:08:15;101919.53;;;8.22;100.00
76866;BME280;66647;52.124;5.416;2024-02-21T06:11:07;101920.34;;;8.23;100.00
76866;BME280;66647;52.124;5.416;2024-02-21T06:17:54;101912.16;;;8.23;100.00
76866;BME280;66647;52.124;5.416;2024-02-21T06:20:21;101915.97;;;8.22;100.00
76866;BME280;66647;52.124;5.416;2024-02-21T06:22:47;101913.25;;;8.22;100.00
76866;BME280;66647;52.124;5.416;2024-02-21T06:25:18;101919.81;;;8.21;100.00
76866;BME280;66647;52.124;5.416;2024-02-21T06:27:48;101919.81;;;8.21;100.00
76866;BME280;66647;52.124;5.416;2024-02-21T06:30:40;101916.56;;;8.19;100.00
76866;BME280;66647;52.124;5.416;2024-02-21T06:33:24;101929.97;;;8.15;100.00
76866;BME280;66647;52.124;5.416;2024-02-21T06:36:56;101942.25;;;8.13;100.00
76866;BME280;66647;52.124;5.416;2024-02-21T06:39:25;101936.28;;;8.11;100.00
76866;BME280;66647;52.124;5.416;2024-02-21T06:42:02;101927.28;;;8.10;100.00
76866;BME280;66647;52.124;5.416;2024-02-21T06:44:54;101936.56;;;8.09;100.00
76866;BME280;66647;52.124;5.416;2024-02-21T06:47:22;101928.66;;;8.07;100.00
76866;BME280;66647;52.124;5.416;2024-02-21T06:50:15;101925.41;;;8.05;100.00
76866;BME280;66647;52.124;5.416;2024-02-21T06:52:42;101918.28;;;8.04;100.00
76866;BME280;66647;52.124;5.416;2024-02-21T06:55:11;101919.94;;;8.05;100.00
76866;BME280;66647;52.124;5.416;2024-02-21T06:57:47;101910.38;;;8.03;100.00
76866;BME280;66647;52.124;5.416;2024-02-21T07:00:17;101915.56;;;8.04;100.00
76866;BME280;66647;52.124;5.416;2024-02-21T07:02:55;101909.28;;;8.04;100.00
76866;BME280;66647;52.124;5.416;2024-02-21T07:05:47;101904.91;;;8.03;100.00
76866;BME280;66647;52.124;5.416;2024-02-21T07:08:14;101905.75;;;8.03;100.00
76866;BME280;66647;52.124;5.416;2024-02-21T07:10:45;101901.38;;;8.02;100.00
76866;BME280;66647;52.124;5.416;2024-02-21T07:13:23;101901.66;;;8.01;100.00
76866;BME280;66647;52.124;5.416;2024-02-21T07:46:05;101852.19;;;8.07;100.00
76866;BME280;66647;52.124;5.416;2024-02-21T07:53:27;101830.56;;;8.11;100.00
76866;BME280;66647;52.124;5.416;2024-02-21T07:59:43;101819.66;;;8.11;100.00
76866;BME280;66647;52.124;5.416;2024-02-21T08:02:24;101822.88;;;8.13;100.00
76866;BME280;66647;52.124;5.416;2024-02-21T08:04:51;101828.34;;;8.13;100.00
76866;BME280;66647;52.124;5.416;2024-02-21T08:07:38;101834.06;;;8.17;100.00
76866;BME280;66647;52.124;5.416;2024-02-21T08:10:05;101831.31;;;8.17;100.00
76866;BME280;66647;52.124;5.416;2024-02-21T08:17:49;101814.84;;;8.27;100.00
76866;BME280;66647;52.124;5.416;2024-02-21T08:20:42;101812.09;;;8.32;100.00
76866;BME280;66647;52.124;5.416;2024-02-21T08:23:34;101804.97;;;8.36;100.00
76866;BME280;66647;52.124;5.416;2024-02-21T08:26:28;101806.59;;;8.37;100.00
76866;BME280;66647;52.124;5.416;2024-02-21T08:29:07;101800.84;;;8.38;100.00
76866;BME280;66647;52.124;5.416;2024-02-21T08:32:12;101806.03;;;8.40;100.00
76866;BME280;66647;52.124;5.416;2024-02-21T08:34:39;101801.38;;;8.40;100.00
76866;BME280;66647;52.124;5.416;2024-02-21T08:37:06;101792.91;;;8.42;100.00
76866;BME280;66647;52.124;5.416;2024-02-21T08:39:32;101793.72;;;8.43;100.00
76866;BME280;66647;52.124;5.416;2024-02-21T08:41:59;101791.78;;;8.43;100.00
76866;BME280;66647;52.124;5.416;2024-02-21T08:44:27;101792.00;;;8.47;100.00
76866;BME280;66647;52.124;5.416;2024-02-21T08:46:55;101786.25;;;8.48;100.00
76866;BME280;66647;52.124;5.416;2024-02-21T08:49:22;101768.75;;;8.49;100.00
76866;BME280;66647;52.124;5.416;2024-02-21T08:51:49;101761.91;;;8.52;100.00
76866;BME280;66647;52.124;5.416;2024-02-21T08:54:16;101756.13;;;8.53;100.00
76866;BME280;66647;52.124;5.416;2024-02-21T08:56:43;101761.03;;;8.56;100.00
76866;BME280;66647;52.124;5.416;2024-02-21T08:59:10;101756.38;;;8.57;100.00
76866;BME280;66647;52.124;5.416;2024-02-21T09:01:37;101765.09;;;8.59;100.00
76866;BME280;66647;52.124;5.416;2024-02-21T09:04:04;101761.28;;;8.60;100.00
76866;BME280;66647;52.124;5.416;2024-02-21T09:06:32;101758.25;;;8.61;100.00
76866;BME280;66647;52.124;5.416;2024-02-21T09:09:00;101753.81;;;8.65;100.00
76866;BME280;66647;52.124;5.416;2024-02-21T09:11:27;101752.72;;;8.66;100.00
76866;BME280;66647;52.124;5.416;2024-02-21T09:13:54;101752.44;;;8.68;100.00
76866;BME280;66647;52.124;5.416;2024-02-21T09:16:21;101758.16;;;8.71;100.00
76866;BME280;66647;52.124;5.416;2024-02-21T09:18:51;101749.66;;;8.73;100.00
76866;BME280;66647;52.124;5.416;2024-02-21T09:21:19;101736.78;;;8.73;100.00
76866;BME280;66647;52.124;5.416;2024-02-21T09:23:45;101735.69;;;8.74;100.00
76866;BME280;66647;52.124;5.416;2024-02-21T09:26:12;101729.41;;;8.74;100.00
76866;BME280;66647;52.124;5.416;2024-02-21T09:28:43;101729.13;;;8.75;100.00
76866;BME280;66647;52.124;5.416;2024-02-21T09:31:10;101728.00;;;8.77;100.00
76866;BME280;66647;52.124;5.416;2024-02-21T09:33:37;101724.75;;;8.74;100.00
76866;BME280;66647;52.124;5.416;2024-02-21T09:36:05;101719.47;;;8.78;100.00
76866;BME280;66647;52.124;5.416;2024-02-21T09:38:32;101710.16;;;8.79;100.00
76866;BME280;66647;52.124;5.416;2024-02-21T09:41:00;101702.72;;;8.85;100.00
76866;BME280;66647;52.124;5.416;2024-02-21T09:43:29;101696.97;;;8.86;100.00
76866;BME280;66647;52.124;5.416;2024-02-21T09:45:58;101691.19;;;8.88;100.00
76866;BME280;66647;52.124;5.416;2024-02-21T09:49:12;101690.63;;;8.91;100.00
76866;BME280;66647;52.124;5.416;2024-02-21T09:51:45;101675.59;;;8.88;100.00
76866;BME280;66647;52.124;5.416;2024-02-21T09:54:14;101672.06;;;8.88;100.00
76866;BME280;66647;52.124;5.416;2024-02-21T09:57:22;101668.50;;;8.87;100.00
76866;BME280;66647;52.124;5.416;2024-02-21T10:00:15;101656.75;;;8.87;100.00
76866;BME280;66647;52.124;5.416;2024-02-21T10:03:37;101646.28;;;8.94;100.00
76866;BME280;66647;52.124;5.416;2024-02-21T10:06:04;101639.09;;;8.98;100.00
76866;BME280;66647;52.124;5.416;2024-02-21T10:08:31;101636.88;;;9.00;100.00
76866;BME280;66647;52.124;5.416;2024-02-21T10:10:58;101626.47;;;9.02;100.00
76866;BME280;66647;52.124;5.416;2024-02-21T10:19:24;101599.16;;;9.16;100.00
76866;BME280;66647;52.124;5.416;2024-02-21T10:24:36;101595.53;;;9.20;100.00
76866;BME280;66647;52.124;5.416;2024-02-21T10:27:09;101589.38;;;9.28;100.00
76866;BME280;66647;52.124;5.416;2024-02-21T10:29:39;101589.31;;;9.33;100.00
76866;BME280;66647;52.124;5.416;2024-02-21T10:32:12;101582.81;;;9.43;100.00
76866;BME280;66647;52.124;5.416;2024-02-21T10:34:41;101567.22;;;9.43;100.00
76866;BME280;66647;52.124;5.416;2024-02-21T10:37:25;101567.63;;;9.51;100.00
76866;BME280;66647;52.124;5.416;2024-02-21T10:39:58;101567.97;;;9.63;100.00
76866;BME280;66647;52.124;5.416;2024-02-21T10:42:43;101561.19;;;9.60;100.00
76866;BME280;66647;52.124;5.416;2024-02-21T10:45:34;101552.44;;;9.58;100.00
76866;BME280;66647;52.124;5.416;2024-02-21T10:48:15;101539.66;;;9.54;100.00
76866;BME280;66647;52.124;5.416;2024-02-21T10:50:56;101531.75;;;9.52;100.00
76866;BME280;66647;52.124;5.416;2024-02-21T10:58:50;101498.50;;;9.59;100.00
76866;BME280;66647;52.124;5.416;2024-02-21T11:01:18;101480.16;;;9.59;100.00
76866;BME280;66647;52.124;5.416;2024-02-21T11:03:49;101472.94;;;9.63;100.00
76866;BME280;66647;52.124;5.416;2024-02-21T11:06:41;101458.97;;;9.65;100.00
76866;BME280;66647;52.124;5.416;2024-02-21T11:09:10;101463.63;;;9.64;100.00
76866;BME280;66647;52.124;5.416;2024-02-21T11:11:39;101458.75;;;9.61;100.00
76866;BME280;66647;52.124;5.416;2024-02-21T11:14:11;101499.22;;;9.64;100.00
76866;BME280;66647;52.124;5.416;2024-02-21T11:16:39;101530.53;;;9.58;100.00
76866;BME280;66647;52.124;5.416;2024-02-21T11:19:24;101521.41;;;9.49;100.00
76866;BME280;66647;52.124;5.416;2024-02-21T11:21:52;101518.88;;;9.39;100.00
76866;BME280;66647;52.124;5.416;2024-02-21T11:24:27;101510.75;;;9.34;100.00
76866;BME280;66647;52.124;5.416;2024-02-21T11:26:56;101519.84;;;9.29;100.00
76866;BME280;66647;52.124;5.416;2024-02-21T11:29:24;101499.06;;;9.28;100.00
76866;BME280;66647;52.124;5.416;2024-02-21T11:31:51;101498.56;;;9.26;100.00
76866;BME280;66647;52.124;5.416;2024-02-21T11:34:20;101492.88;;;9.23;100.00
76866;BME280;66647;52.124;5.416;2024-02-21T11:36:48;101492.06;;;9.22;100.00
76866;BME280;66647;52.124;5.416;2024-02-21T11:39:21;101484.44;;;9.19;100.00
76866;BME280;66647;52.124;5.416;2024-02-21T11:42:05;101479.88;;;9.15;100.00
76866;BME280;66647;52.124;5.416;2024-02-21T11:44:35;101470.03;;;9.14;100.00
76866;BME280;66647;52.124;5.416;2024-02-21T11:47:04;101451.41;;;9.16;100.00
76866;BME280;66647;52.124;5.416;2024-02-21T11:49:42;101450.59;;;9.15;100.00
76866;BME280;66647;52.124;5.416;2024-02-21T11:52:09;101437.81;;;9.10;100.00
76866;BME280;66647;52.124;5.416;2024-02-21T11:54:36;101441.69;;;9.09;100.00
76866;BME280;66647;52.124;5.416;2024-02-21T11:57:02;101434.78;;;9.12;100.00
76866;BME280;66647;52.124;5.416;2024-02-21T11:59:33;101407.91;;;9.14;100.00
76866;BME280;66647;52.124;5.416;2024-02-21T12:02:01;101390.81;;;9.22;100.00
76866;BME280;66647;52.124;5.416;2024-02-21T12:04:29;101382.91;;;9.34;100.00
76866;BME280;66647;52.124;5.416;2024-02-21T12:06:59;101371.13;;;9.48;100.00
76866;BME280;66647;52.124;5.416;2024-02-21T12:09:26;101358.06;;;9.58;100.00
76866;BME280;66647;52.124;5.416;2024-02-21T12:12:01;101341.91;;;9.70;100.00
76866;BME280;66647;52.124;5.416;2024-02-21T12:14:29;101329.91;;;9.80;100.00
76866;BME280;66647;52.124;5.416;2024-02-21T12:16:57;101324.59;;;9.97;100.00
76866;BME280;66647;52.124;5.416;2024-02-21T12:19:24;101320.00;;;10.06;100.00
76866;BME280;66647;52.124;5.416;2024-02-21T12:21:51;101326.75;;;10.09;100.00
76866;BME280;66647;52.124;5.416;2024-02-21T12:24:22;101320.44;;;10.22;100.00
76866;BME280;66647;52.124;5.416;2024-02-21T12:26:53;101315.97;;;10.26;100.00
76866;BME280;66647;52.124;5.416;2024-02-21T12:29:22;101299.41;;;10.18;100.00
76866;BME280;66647;52.124;5.416;2024-02-21T12:31:51;101294.06;;;10.13;100.00
76866;BME280;66647;52.124;5.416;2024-02-21T12:34:18;101287.59;;;10.08;100.00
76866;BME280;66647;52.124;5.416;2024-02-21T12:37:03;101272.94;;;10.13;100.00
76866;BME280;66647;52.124;5.416;2024-02-21T12:39:30;101255.69;;;10.13;100.00
76866;BME280;66647;52.124;5.416;2024-02-21T12:41:58;101266.03;;;10.16;100.00
76866;BME280;66647;52.124;5.416;2024-02-21T12:44:25;101256.00;;;10.11;100.00
76866;BME280;66647;52.124;5.416;2024-02-21T12:46:51;101259.84;;;10.01;100.00
76866;BME280;66647;52.124;5.416;2024-02-21T12:49:20;101237.59;;;10.03;100.00
76866;BME280;66647;52.124;5.416;2024-02-21T12:51:51;101224.09;;;10.06;100.00
76866;BME280;66647;52.124;5.416;2024-02-21T12:54:17;101229.72;;;10.10;100.00
76866;BME280;66647;52.124;5.416;2024-02-21T12:56:44;101219.56;;;10.10;100.00
76866;BME280;66647;52.124;5.416;2024-02-21T12:59:11;101199.09;;;10.08;100.00
76866;BME280;66647;52.124;5.416;2024-02-21T13:01:37;101191.88;;;10.12;100.00
76866;BME280;66647;52.124;5.416;2024-02-21T13:04:05;101191.69;;;10.08;100.00
76866;BME280;66647;52.124;5.416;2024-02-21T13:06:32;101179.59;;;10.09;100.00
76866;BME280;66647;52.124;5.416;2024-02-21T13:08:59;101174.13;;;10.09;100.00
76866;BME280;66647;52.124;5.416;2024-02-21T13:11:30;101161.72;;;10.12;100.00
76866;BME280;66647;52.124;5.416;2024-02-21T13:13:58;101156.44;;;10.16;100.00
76866;BME280;66647;52.124;5.416;2024-02-21T13:16:25;101158.53;;;10.19;100.00
76866;BME280;66647;52.124;5.416;2024-02-21T13:18:53;101164.53;;;10.21;100.00
76866;BME280;66647;52.124;5.416;2024-02-21T13:21:20;101153.59;;;10.21;100.00
76866;BME280;66647;52.124;5.416;2024-02-21T13:23:47;101142.09;;;10.19;100.00
76866;BME280;66647;52.124;5.416;2024-02-21T13:26:14;101150.31;;;10.19;100.00
76866;BME280;66647;52.124;5.416;2024-02-21T13:28:41;101147.06;;;10.17;100.00
76866;BME280;66647;52.124;5.416;2024-02-21T13:31:08;101139.19;;;10.15;99.47
76866;BME280;66647;52.124;5.416;2024-02-21T13:33:35;101133.19;;;10.13;100.00
76866;BME280;66647;52.124;5.416;2024-02-21T13:36:03;101118.50;;;10.09;100.00
76866;BME280;66647;52.124;5.416;2024-02-21T13:38:30;101105.94;;;10.08;100.00
76866;BME280;66647;52.124;5.416;2024-02-21T13:40:59;101104.34;;;10.07;99.89
76866;BME280;66647;52.124;5.416;2024-02-21T13:43:27;101090.31;;;10.08;100.00
76866;BME280;66647;52.124;5.416;2024-02-21T13:45:58;101088.88;;;10.11;100.00
76866;BME280;66647;52.124;5.416;2024-02-21T13:48:25;101067.75;;;10.11;100.00
76866;BME280;66647;52.124;5.416;2024-02-21T13:50:53;101073.06;;;10.08;100.00
76866;BME280;66647;52.124;5.416;2024-02-21T13:53:20;101058.53;;;10.07;100.00
76866;BME280;66647;52.124;5.416;2024-02-21T13:55:48;101057.41;;;10.08;100.00
76866;BME280;66647;52.124;5.416;2024-02-21T13:58:15;101046.47;;;10.08;100.00
76866;BME280;66647;52.124;5.416;2024-02-21T14:00:42;101039.22;;;10.13;100.00
76866;BME280;66647;52.124;5.416;2024-02-21T14:03:08;101038.59;;;10.16;100.00
76866;BME280;66647;52.124;5.416;2024-02-21T14:05:36;101027.78;;;10.10;98.67
76866;BME280;66647;52.124;5.416;2024-02-21T14:08:07;101021.34;;;10.06;99.12
76866;BME280;66647;52.124;5.416;2024-02-21T14:10:38;101009.09;;;10.04;98.38
76866;BME280;66647;52.124;5.416;2024-02-21T14:13:04;101003.59;;;10.04;99.69
76866;BME280;66647;52.124;5.416;2024-02-21T14:15:31;100987.81;;;10.01;98.78
76866;BME280;66647;52.124;5.416;2024-02-21T14:18:01;100982.00;;;10.02;98.54
76866;BME280;66647;52.124;5.416;2024-02-21T14:20:30;100977.00;;;10.04;99.86
76866;BME280;66647;52.124;5.416;2024-02-21T14:22:57;100975.09;;;10.05;98.35
76866;BME280;66647;52.124;5.416;2024-02-21T14:25:23;100964.13;;;10.05;99.30
76866;BME280;66647;52.124;5.416;2024-02-21T14:27:50;100945.44;;;10.07;97.09
76866;BME280;66647;52.124;5.416;2024-02-21T14:30:17;100940.28;;;10.05;97.08
76866;BME280;66647;52.124;5.416;2024-02-21T14:32:44;100933.66;;;10.06;97.85
76866;BME280;66647;52.124;5.416;2024-02-21T14:35:12;100921.91;;;10.06;98.06
76866;BME280;66647;52.124;5.416;2024-02-21T14:37:39;100914.81;;;10.05;97.51
76866;BME280;66647;52.124;5.416;2024-02-21T14:40:06;100904.66;;;10.05;97.83
76866;BME280;66647;52.124;5.416;2024-02-21T14:42:33;100905.78;;;10.04;97.49
76866;BME280;66647;52.124;5.416;2024-02-21T14:45:00;100900.31;;;10.04;97.96
76866;BME280;66647;52.124;5.416;2024-02-21T14:47:32;100884.19;;;10.03;98.94
76866;BME280;66647;52.124;5.416;2024-02-21T14:49:59;100877.41;;;10.00;99.03
76866;BME280;66647;52.124;5.416;2024-02-21T14:52:26;100876.94;;;9.98;98.74
76866;BME280;66647;52.124;5.416;2024-02-21T14:54:55;100886.09;;;9.94;98.46
76866;BME280;66647;52.124;5.416;2024-02-21T14:57:24;100863.53;;;9.88;99.64
76866;BME280;66647;52.124;5.416;2024-02-21T14:59:51;100854.16;;;9.81;99.79
76866;BME280;66647;52.124;5.416;2024-02-21T15:02:23;100854.50;;;9.79;100.00